Aspen, Colorado
Current Conditions -  °F | °C
As of 9:53 AM on Saturday 20 Dec 2014 (Local Time) from KASE Reporting Station
Broken Clouds Broken Clouds  
Wind Chill: 13°   Ceiling: 6000
Heat Index: 21°   Visibility: 10mi
Dew Point: 15°   Wind: 6mph
Humidity: 78%   Direction: 340°NNW
Pressure: 30.12"   Gusts: NA
Location:  39.19°N, 106.81°W
Report Text: KASE 201653Z 34005KT 10SM SCT045 BKN060 M06/M09 A3012 RMK AO2 SLP234 T10611094
Loading
Personal Weather Stations






























Interactive Weather Map New forecast layout! Learn more

10-Day Weather Forecast

Advertisements
Track Severe Weather on mobile